sensor_id;sensor_type;location;lat;lon;timestamp;temperature;humidity
14993;DHT22;7592;51.088;13.732;2023-11-18T00:04:23;6.70;99.90
14993;DHT22;7592;51.088;13.732;2023-11-18T00:09:16;6.70;99.90
14993;DHT22;7592;51.088;13.732;2023-11-18T00:14:08;6.60;99.90
14993;DHT22;7592;51.088;13.732;2023-11-18T00:19:03;6.60;99.90
14993;DHT22;7592;51.088;13.732;2023-11-18T00:23:57;6.50;99.90
14993;DHT22;7592;51.088;13.732;2023-11-18T00:28:50;6.50;99.90
14993;DHT22;7592;51.088;13.732;2023-11-18T00:33:42;6.50;99.90
14993;DHT22;7592;51.088;13.732;2023-11-18T00:38:35;6.40;99.90
14993;DHT22;7592;51.088;13.732;2023-11-18T00:43:27;6.50;99.90
14993;DHT22;7592;51.088;13.732;2023-11-18T00:48:19;6.40;99.90
14993;DHT22;7592;51.088;13.732;2023-11-18T00:53:11;6.40;99.90
14993;DHT22;7592;51.088;13.732;2023-11-18T00:58:03;6.30;99.90
14993;DHT22;7592;51.088;13.732;2023-11-18T01:02:56;6.30;99.90
14993;DHT22;7592;51.088;13.732;2023-11-18T01:07:49;6.30;99.90
14993;DHT22;7592;51.088;13.732;2023-11-18T01:12:42;6.30;99.90
14993;DHT22;7592;51.088;13.732;2023-11-18T01:17:37;6.20;99.90
14993;DHT22;7592;51.088;13.732;2023-11-18T01:22:30;6.20;99.90
14993;DHT22;7592;51.088;13.732;2023-11-18T01:27:22;6.20;99.90
14993;DHT22;7592;51.088;13.732;2023-11-18T01:32:14;6.20;99.90
14993;DHT22;7592;51.088;13.732;2023-11-18T01:37:07;6.20;99.90
14993;DHT22;7592;51.088;13.732;2023-11-18T01:42:01;6.10;99.90
14993;DHT22;7592;51.088;13.732;2023-11-18T01:46:56;6.20;99.90
14993;DHT22;7592;51.088;13.732;2023-11-18T01:51:50;6.20;99.90
14993;DHT22;7592;51.088;13.732;2023-11-18T01:56:48;6.20;99.90
14993;DHT22;7592;51.088;13.732;2023-11-18T02:01:41;6.20;99.90
14993;DHT22;7592;51.088;13.732;2023-11-18T02:07:09;6.20;99.90
14993;DHT22;7592;51.088;13.732;2023-11-18T02:17:38;6.20;99.90
14993;DHT22;7592;51.088;13.732;2023-11-18T02:22:31;6.10;99.90
14993;DHT22;7592;51.088;13.732;2023-11-18T02:27:23;6.10;99.90
14993;DHT22;7592;51.088;13.732;2023-11-18T02:32:32;6.10;99.90
14993;DHT22;7592;51.088;13.732;2023-11-18T02:37:26;6.10;99.90
14993;DHT22;7592;51.088;13.732;2023-11-18T02:42:20;6.10;99.90
14993;DHT22;7592;51.088;13.732;2023-11-18T02:47:16;6.10;99.90
14993;DHT22;7592;51.088;13.732;2023-11-18T02:52:08;6.00;99.90
14993;DHT22;7592;51.088;13.732;2023-11-18T02:57:01;5.90;99.90
14993;DHT22;7592;51.088;13.732;2023-11-18T03:01:54;5.90;99.90
14993;DHT22;7592;51.088;13.732;2023-11-18T03:06:48;5.70;99.90
14993;DHT22;7592;51.088;13.732;2023-11-18T03:11:40;5.60;99.90
14993;DHT22;7592;51.088;13.732;2023-11-18T03:16:32;5.50;99.90
14993;DHT22;7592;51.088;13.732;2023-11-18T03:21:24;5.50;99.90
14993;DHT22;7592;51.088;13.732;2023-11-18T03:26:19;5.60;99.90
14993;DHT22;7592;51.088;13.732;2023-11-18T03:31:11;5.60;99.90
14993;DHT22;7592;51.088;13.732;2023-11-18T03:36:04;5.40;99.90
14993;DHT22;7592;51.088;13.732;2023-11-18T03:40:56;5.10;99.90
14993;DHT22;7592;51.088;13.732;2023-11-18T03:45:50;5.20;99.90
14993;DHT22;7592;51.088;13.732;2023-11-18T03:50:48;5.30;99.90
14993;DHT22;7592;51.088;13.732;2023-11-18T03:55:40;5.40;99.90
14993;DHT22;7592;51.088;13.732;2023-11-18T04:00:32;5.40;99.90
14993;DHT22;7592;51.088;13.732;2023-11-18T04:05:25;5.50;99.90
14993;DHT22;7592;51.088;13.732;2023-11-18T04:10:18;5.60;99.90
14993;DHT22;7592;51.088;13.732;2023-11-18T04:15:11;5.70;99.90
14993;DHT22;7592;51.088;13.732;2023-11-18T04:20:04;5.60;99.90
14993;DHT22;7592;51.088;13.732;2023-11-18T04:25:00;5.50;99.90
14993;DHT22;7592;51.088;13.732;2023-11-18T04:29:52;5.60;99.90
14993;DHT22;7592;51.088;13.732;2023-11-18T04:34:44;5.60;99.90
14993;DHT22;7592;51.088;13.732;2023-11-18T04:39:37;5.70;99.90
14993;DHT22;7592;51.088;13.732;2023-11-18T04:44:29;5.70;99.90
14993;DHT22;7592;51.088;13.732;2023-11-18T04:49:23;5.70;99.90
14993;DHT22;7592;51.088;13.732;2023-11-18T04:54:16;5.70;99.90
14993;DHT22;7592;51.088;13.732;2023-11-18T04:59:08;5.70;99.90
14993;DHT22;7592;51.088;13.732;2023-11-18T05:04:00;5.70;99.90
14993;DHT22;7592;51.088;13.732;2023-11-18T05:08:52;5.70;99.90
14993;DHT22;7592;51.088;13.732;2023-11-18T05:13:45;5.70;99.90
14993;DHT22;7592;51.088;13.732;2023-11-18T05:18:37;5.80;99.90
14993;DHT22;7592;51.088;13.732;2023-11-18T05:23:31;5.70;99.90
14993;DHT22;7592;51.088;13.732;2023-11-18T05:28:24;5.80;99.90
14993;DHT22;7592;51.088;13.732;2023-11-18T05:33:17;5.80;99.90
14993;DHT22;7592;51.088;13.732;2023-11-18T05:38:09;5.80;99.90
14993;DHT22;7592;51.088;13.732;2023-11-18T05:43:03;5.80;99.90
14993;DHT22;7592;51.088;13.732;2023-11-18T05:48:08;5.80;99.90
14993;DHT22;7592;51.088;13.732;2023-11-18T05:53:00;5.80;99.90
14993;DHT22;7592;51.088;13.732;2023-11-18T05:57:52;5.90;99.90
14993;DHT22;7592;51.088;13.732;2023-11-18T06:02:45;5.90;99.90
14993;DHT22;7592;51.088;13.732;2023-11-18T06:07:37;5.90;99.90
14993;DHT22;7592;51.088;13.732;2023-11-18T06:12:32;5.80;99.90
14993;DHT22;7592;51.088;13.732;2023-11-18T06:17:24;5.80;99.90
14993;DHT22;7592;51.088;13.732;2023-11-18T06:22:16;5.90;99.90
14993;DHT22;7592;51.088;13.732;2023-11-18T06:27:08;5.80;99.90
14993;DHT22;7592;51.088;13.732;2023-11-18T06:32:02;5.90;99.90
14993;DHT22;7592;51.088;13.732;2023-11-18T06:36:57;5.90;99.90
14993;DHT22;7592;51.088;13.732;2023-11-18T06:41:50;5.90;99.90
14993;DHT22;7592;51.088;13.732;2023-11-18T06:46:43;5.90;99.90
14993;DHT22;7592;51.088;13.732;2023-11-18T06:51:36;5.90;99.90
14993;DHT22;7592;51.088;13.732;2023-11-18T06:56:30;5.90;99.90
14993;DHT22;7592;51.088;13.732;2023-11-18T07:01:22;6.00;99.90
14993;DHT22;7592;51.088;13.732;2023-11-18T07:06:18;6.00;99.90
14993;DHT22;7592;51.088;13.732;2023-11-18T07:11:15;6.10;99.90
14993;DHT22;7592;51.088;13.732;2023-11-18T07:16:07;6.10;99.90
14993;DHT22;7592;51.088;13.732;2023-11-18T07:21:01;6.20;99.90
14993;DHT22;7592;51.088;13.732;2023-11-18T07:25:55;6.20;99.90
14993;DHT22;7592;51.088;13.732;2023-11-18T07:37:19;6.50;99.90
14993;DHT22;7592;51.088;13.732;2023-11-18T07:42:13;6.60;99.90
14993;DHT22;7592;51.088;13.732;2023-11-18T07:47:06;7.00;99.90
14993;DHT22;7592;51.088;13.732;2023-11-18T07:51:58;7.40;99.90
14993;DHT22;7592;51.088;13.732;2023-11-18T07:56:50;7.90;99.90
14993;DHT22;7592;51.088;13.732;2023-11-18T08:01:45;7.90;99.90
14993;DHT22;7592;51.088;13.732;2023-11-18T08:06:38;7.90;99.90
14993;DHT22;7592;51.088;13.732;2023-11-18T08:11:30;7.90;99.90
14993;DHT22;7592;51.088;13.732;2023-11-18T08:16:22;7.90;99.90
14993;DHT22;7592;51.088;13.732;2023-11-18T08:21:14;8.10;99.90
14993;DHT22;7592;51.088;13.732;2023-11-18T08:26:07;8.40;99.90
14993;DHT22;7592;51.088;13.732;2023-11-18T08:30:59;8.60;99.90
14993;DHT22;7592;51.088;13.732;2023-11-18T08:35:53;8.80;99.90
14993;DHT22;7592;51.088;13.732;2023-11-18T08:40:45;9.10;99.90
14993;DHT22;7592;51.088;13.732;2023-11-18T08:45:40;9.00;99.90
14993;DHT22;7592;51.088;13.732;2023-11-18T08:50:37;8.90;99.90
14993;DHT22;7592;51.088;13.732;2023-11-18T08:55:33;8.80;99.90
14993;DHT22;7592;51.088;13.732;2023-11-18T09:00:35;8.90;99.90
14993;DHT22;7592;51.088;13.732;2023-11-18T09:06:04;8.90;99.90
14993;DHT22;7592;51.088;13.732;2023-11-18T09:10:58;9.00;99.90
14993;DHT22;7592;51.088;13.732;2023-11-18T09:15:50;9.50;99.90
14993;DHT22;7592;51.088;13.732;2023-11-18T09:20:42;9.90;99.90
14993;DHT22;7592;51.088;13.732;2023-11-18T09:25:35;9.90;99.90
14993;DHT22;7592;51.088;13.732;2023-11-18T09:30:28;10.10;99.90
14993;DHT22;7592;51.088;13.732;2023-11-18T09:35:21;10.00;99.90
14993;DHT22;7592;51.088;13.732;2023-11-18T09:40:14;10.10;99.90
14993;DHT22;7592;51.088;13.732;2023-11-18T09:45:06;10.50;99.90
14993;DHT22;7592;51.088;13.732;2023-11-18T09:50:09;10.90;99.90
14993;DHT22;7592;51.088;13.732;2023-11-18T09:55:04;11.10;99.90
14993;DHT22;7592;51.088;13.732;2023-11-18T10:00:08;10.90;99.90
14993;DHT22;7592;51.088;13.732;2023-11-18T10:05:13;10.80;99.90
14993;DHT22;7592;51.088;13.732;2023-11-18T10:10:08;11.00;99.90
14993;DHT22;7592;51.088;13.732;2023-11-18T10:15:09;11.00;99.90
14993;DHT22;7592;51.088;13.732;2023-11-18T10:20:04;11.10;99.90
14993;DHT22;7592;51.088;13.732;2023-11-18T10:25:05;11.70;99.90
14993;DHT22;7592;51.088;13.732;2023-11-18T10:30:01;12.00;99.90
14993;DHT22;7592;51.088;13.732;2023-11-18T10:34:58;12.60;99.90
14993;DHT22;7592;51.088;13.732;2023-11-18T10:39:51;12.60;99.90
14993;DHT22;7592;51.088;13.732;2023-11-18T10:45:03;12.70;99.90
14993;DHT22;7592;51.088;13.732;2023-11-18T10:50:00;13.90;99.90
14993;DHT22;7592;51.088;13.732;2023-11-18T10:54:53;13.60;99.90
14993;DHT22;7592;51.088;13.732;2023-11-18T11:00:04;12.40;99.90
14993;DHT22;7592;51.088;13.732;2023-11-18T11:05:05;11.80;99.90
14993;DHT22;7592;51.088;13.732;2023-11-18T11:10:12;11.30;99.90
14993;DHT22;7592;51.088;13.732;2023-11-18T11:15:10;10.90;99.90
14993;DHT22;7592;51.088;13.732;2023-11-18T11:20:07;10.90;99.90
14993;DHT22;7592;51.088;13.732;2023-11-18T11:25:38;11.10;99.90
14993;DHT22;7592;51.088;13.732;2023-11-18T11:30:58;10.70;99.90
14993;DHT22;7592;51.088;13.732;2023-11-18T11:35:56;10.70;99.90
14993;DHT22;7592;51.088;13.732;2023-11-18T11:40:51;10.50;99.90
14993;DHT22;7592;51.088;13.732;2023-11-18T11:45:47;10.30;99.90
14993;DHT22;7592;51.088;13.732;2023-11-18T11:56:02;10.40;99.90
14993;DHT22;7592;51.088;13.732;2023-11-18T12:06:10;10.70;99.90
14993;DHT22;7592;51.088;13.732;2023-11-18T12:11:08;10.60;99.90
14993;DHT22;7592;51.088;13.732;2023-11-18T12:16:05;10.00;99.90
14993;DHT22;7592;51.088;13.732;2023-11-18T12:20:58;10.00;99.90
14993;DHT22;7592;51.088;13.732;2023-11-18T12:25:55;10.10;99.90
14993;DHT22;7592;51.088;13.732;2023-11-18T12:30:49;10.00;99.90
14993;DHT22;7592;51.088;13.732;2023-11-18T12:40:55;10.10;99.90
14993;DHT22;7592;51.088;13.732;2023-11-18T12:46:19;10.00;99.90
14993;DHT22;7592;51.088;13.732;2023-11-18T12:51:16;10.00;99.90
14993;DHT22;7592;51.088;13.732;2023-11-18T12:56:12;10.10;99.90
14993;DHT22;7592;51.088;13.732;2023-11-18T13:01:05;10.00;99.90
14993;DHT22;7592;51.088;13.732;2023-11-18T13:05:58;9.80;99.90
14993;DHT22;7592;51.088;13.732;2023-11-18T13:10:50;9.50;99.90
14993;DHT22;7592;51.088;13.732;2023-11-18T13:15:44;9.30;99.90
14993;DHT22;7592;51.088;13.732;2023-11-18T13:20:36;9.30;99.90
14993;DHT22;7592;51.088;13.732;2023-11-18T13:25:29;9.40;99.90
14993;DHT22;7592;51.088;13.732;2023-11-18T13:30:22;9.60;99.90
14993;DHT22;7592;51.088;13.732;2023-11-18T13:35:18;9.50;99.90
14993;DHT22;7592;51.088;13.732;2023-11-18T13:40:12;9.70;99.90
14993;DHT22;7592;51.088;13.732;2023-11-18T13:45:08;9.40;99.90
14993;DHT22;7592;51.088;13.732;2023-11-18T13:50:01;9.00;99.90
14993;DHT22;7592;51.088;13.732;2023-11-18T13:54:59;8.70;99.90
14993;DHT22;7592;51.088;13.732;2023-11-18T13:59:52;8.60;99.90
14993;DHT22;7592;51.088;13.732;2023-11-18T14:04:46;8.50;99.90
14993;DHT22;7592;51.088;13.732;2023-11-18T14:09:45;8.50;99.90
14993;DHT22;7592;51.088;13.732;2023-11-18T14:14:38;8.30;99.90
14993;DHT22;7592;51.088;13.732;2023-11-18T14:19:30;8.10;99.90
14993;DHT22;7592;51.088;13.732;2023-11-18T14:24:22;7.90;99.90
14993;DHT22;7592;51.088;13.732;2023-11-18T14:29:15;7.70;99.90
14993;DHT22;7592;51.088;13.732;2023-11-18T14:34:07;7.40;99.90
14993;DHT22;7592;51.088;13.732;2023-11-18T14:39:02;7.30;99.90
14993;DHT22;7592;51.088;13.732;2023-11-18T14:43:55;7.40;99.90
14993;DHT22;7592;51.088;13.732;2023-11-18T14:48:47;7.30;99.90
14993;DHT22;7592;51.088;13.732;2023-11-18T14:53:40;7.20;99.90
14993;DHT22;7592;51.088;13.732;2023-11-18T14:58:32;7.00;99.90
14993;DHT22;7592;51.088;13.732;2023-11-18T15:03:24;6.90;99.90
14993;DHT22;7592;51.088;13.732;2023-11-18T15:08:17;6.60;99.90
14993;DHT22;7592;51.088;13.732;2023-11-18T15:13:09;6.30;99.90
14993;DHT22;7592;51.088;13.732;2023-11-18T15:18:08;6.10;99.90
14993;DHT22;7592;51.088;13.732;2023-11-18T15:23:02;5.80;99.90
14993;DHT22;7592;51.088;13.732;2023-11-18T15:27:54;5.60;99.90
14993;DHT22;7592;51.088;13.732;2023-11-18T15:32:48;5.50;99.90
14993;DHT22;7592;51.088;13.732;2023-11-18T15:37:41;5.30;99.90
14993;DHT22;7592;51.088;13.732;2023-11-18T15:42:33;5.10;99.90
14993;DHT22;7592;51.088;13.732;2023-11-18T15:47:28;5.00;99.90
14993;DHT22;7592;51.088;13.732;2023-11-18T15:52:20;4.80;99.90
14993;DHT22;7592;51.088;13.732;2023-11-18T15:57:12;4.60;99.90
14993;DHT22;7592;51.088;13.732;2023-11-18T16:02:04;4.50;99.90
14993;DHT22;7592;51.088;13.732;2023-11-18T16:06:58;4.50;99.90
14993;DHT22;7592;51.088;13.732;2023-11-18T16:11:50;4.40;99.90
14993;DHT22;7592;51.088;13.732;2023-11-18T16:16:42;4.30;99.90
14993;DHT22;7592;51.088;13.732;2023-11-18T16:21:37;4.20;99.90
14993;DHT22;7592;51.088;13.732;2023-11-18T16:26:29;4.20;99.90
14993;DHT22;7592;51.088;13.732;2023-11-18T16:31:21;4.50;99.90
14993;DHT22;7592;51.088;13.732;2023-11-18T16:36:22;4.50;99.90
14993;DHT22;7592;51.088;13.732;2023-11-18T16:41:14;4.40;99.90
14993;DHT22;7592;51.088;13.732;2023-11-18T16:46:07;4.30;99.90
14993;DHT22;7592;51.088;13.732;2023-11-18T16:50:59;4.10;99.90
14993;DHT22;7592;51.088;13.732;2023-11-18T16:55:53;4.10;99.90
14993;DHT22;7592;51.088;13.732;2023-11-18T17:00:45;4.10;99.90
14993;DHT22;7592;51.088;13.732;2023-11-18T17:05:42;4.10;99.90
14993;DHT22;7592;51.088;13.732;2023-11-18T17:10:35;4.00;99.90
14993;DHT22;7592;51.088;13.732;2023-11-18T17:15:27;4.10;99.90
14993;DHT22;7592;51.088;13.732;2023-11-18T17:20:20;4.10;99.90
14993;DHT22;7592;51.088;13.732;2023-11-18T17:25:16;4.20;99.90
14993;DHT22;7592;51.088;13.732;2023-11-18T17:30:09;4.50;99.90
14993;DHT22;7592;51.088;13.732;2023-11-18T17:35:05;4.70;99.90
14993;DHT22;7592;51.088;13.732;2023-11-18T17:39:57;4.80;99.90
14993;DHT22;7592;51.088;13.732;2023-11-18T17:44:49;4.90;99.90
14993;DHT22;7592;51.088;13.732;2023-11-18T17:49:41;5.00;99.90
14993;DHT22;7592;51.088;13.732;2023-11-18T17:54:33;5.10;99.90
14993;DHT22;7592;51.088;13.732;2023-11-18T17:59:25;5.10;99.90
14993;DHT22;7592;51.088;13.732;2023-11-18T18:04:17;5.10;99.90
14993;DHT22;7592;51.088;13.732;2023-11-18T18:09:09;5.10;99.90
14993;DHT22;7592;51.088;13.732;2023-11-18T18:14:01;5.20;99.90
14993;DHT22;7592;51.088;13.732;2023-11-18T18:18:54;5.20;99.90
14993;DHT22;7592;51.088;13.732;2023-11-18T18:23:46;5.30;99.90
14993;DHT22;7592;51.088;13.732;2023-11-18T18:28:38;5.30;99.90
14993;DHT22;7592;51.088;13.732;2023-11-18T18:33:30;5.30;99.90
14993;DHT22;7592;51.088;13.732;2023-11-18T18:38:23;5.40;99.90
14993;DHT22;7592;51.088;13.732;2023-11-18T18:43:15;5.40;99.90
14993;DHT22;7592;51.088;13.732;2023-11-18T18:48:07;5.40;99.90
14993;DHT22;7592;51.088;13.732;2023-11-18T18:53:00;5.40;99.90
14993;DHT22;7592;51.088;13.732;2023-11-18T18:57:53;5.40;99.90
14993;DHT22;7592;51.088;13.732;2023-11-18T19:02:45;5.40;99.90
14993;DHT22;7592;51.088;13.732;2023-11-18T19:07:38;5.50;99.90
14993;DHT22;7592;51.088;13.732;2023-11-18T19:12:30;5.50;99.90
14993;DHT22;7592;51.088;13.732;2023-11-18T19:17:24;5.50;99.90
14993;DHT22;7592;51.088;13.732;2023-11-18T19:22:17;5.50;99.90
14993;DHT22;7592;51.088;13.732;2023-11-18T19:27:09;5.50;99.90
14993;DHT22;7592;51.088;13.732;2023-11-18T19:32:04;5.60;99.90
14993;DHT22;7592;51.088;13.732;2023-11-18T19:36:58;5.60;99.90
14993;DHT22;7592;51.088;13.732;2023-11-18T19:41:50;5.60;99.90
14993;DHT22;7592;51.088;13.732;2023-11-18T19:46:42;5.70;99.90
14993;DHT22;7592;51.088;13.732;2023-11-18T19:51:41;5.70;99.90
14993;DHT22;7592;51.088;13.732;2023-11-18T19:56:33;5.80;99.90
14993;DHT22;7592;51.088;13.732;2023-11-18T20:01:25;5.80;99.90
14993;DHT22;7592;51.088;13.732;2023-11-18T20:06:18;5.80;99.90
14993;DHT22;7592;51.088;13.732;2023-11-18T20:11:10;5.80;99.90
14993;DHT22;7592;51.088;13.732;2023-11-18T20:16:02;5.80;99.90
14993;DHT22;7592;51.088;13.732;2023-11-18T20:20:59;5.90;99.90
14993;DHT22;7592;51.088;13.732;2023-11-18T20:25:52;5.90;99.90
14993;DHT22;7592;51.088;13.732;2023-11-18T20:30:44;5.90;99.90
14993;DHT22;7592;51.088;13.732;2023-11-18T20:35:36;5.90;99.90
14993;DHT22;7592;51.088;13.732;2023-11-18T20:40:28;5.90;99.90
14993;DHT22;7592;51.088;13.732;2023-11-18T20:45:22;6.00;99.90
14993;DHT22;7592;51.088;13.732;2023-11-18T20:50:15;6.00;99.90
14993;DHT22;7592;51.088;13.732;2023-11-18T20:55:08;6.00;99.90
14993;DHT22;7592;51.088;13.732;2023-11-18T21:00:02;6.00;99.90
14993;DHT22;7592;51.088;13.732;2023-11-18T21:04:58;6.00;99.90
14993;DHT22;7592;51.088;13.732;2023-11-18T21:09:50;5.90;99.90
14993;DHT22;7592;51.088;13.732;2023-11-18T21:14:42;5.90;99.90
14993;DHT22;7592;51.088;13.732;2023-11-18T21:19:36;6.00;99.90
14993;DHT22;7592;51.088;13.732;2023-11-18T21:24:28;6.10;99.90
14993;DHT22;7592;51.088;13.732;2023-11-18T21:29:20;6.10;99.90
14993;DHT22;7592;51.088;13.732;2023-11-18T21:34:13;6.10;99.90
14993;DHT22;7592;51.088;13.732;2023-11-18T21:39:06;6.10;99.90
14993;DHT22;7592;51.088;13.732;2023-11-18T21:44:04;6.10;99.90
14993;DHT22;7592;51.088;13.732;2023-11-18T21:48:57;6.20;99.90
14993;DHT22;7592;51.088;13.732;2023-11-18T21:53:49;6.20;99.90
14993;DHT22;7592;51.088;13.732;2023-11-18T21:58:42;6.20;99.90
14993;DHT22;7592;51.088;13.732;2023-11-18T22:03:34;6.20;99.90
14993;DHT22;7592;51.088;13.732;2023-11-18T22:08:26;6.30;99.90
14993;DHT22;7592;51.088;13.732;2023-11-18T22:13:18;6.30;99.90
14993;DHT22;7592;51.088;13.732;2023-11-18T22:18:11;6.30;99.90
14993;DHT22;7592;51.088;13.732;2023-11-18T22:23:05;6.30;99.90
14993;DHT22;7592;51.088;13.732;2023-11-18T22:27:58;6.40;99.90
14993;DHT22;7592;51.088;13.732;2023-11-18T22:32:50;6.40;99.90
14993;DHT22;7592;51.088;13.732;2023-11-18T22:37:46;6.50;99.90
14993;DHT22;7592;51.088;13.732;2023-11-18T22:42:38;6.50;99.90
14993;DHT22;7592;51.088;13.732;2023-11-18T22:48:06;6.50;99.90
14993;DHT22;7592;51.088;13.732;2023-11-18T22:52:59;6.50;99.90
14993;DHT22;7592;51.088;13.732;2023-11-18T22:57:52;6.40;99.90
14993;DHT22;7592;51.088;13.732;2023-11-18T23:02:44;6.40;99.90
14993;DHT22;7592;51.088;13.732;2023-11-18T23:07:36;6.30;99.90
14993;DHT22;7592;51.088;13.732;2023-11-18T23:12:28;6.20;99.90
14993;DHT22;7592;51.088;13.732;2023-11-18T23:17:21;6.10;99.90
14993;DHT22;7592;51.088;13.732;2023-11-18T23:22:15;6.10;99.90
14993;DHT22;7592;51.088;13.732;2023-11-18T23:27:08;6.10;99.90
14993;DHT22;7592;51.088;13.732;2023-11-18T23:32:00;6.00;99.90
14993;DHT22;7592;51.088;13.732;2023-11-18T23:36:53;6.00;99.90
14993;DHT22;7592;51.088;13.732;2023-11-18T23:41:46;5.90;99.90
14993;DHT22;7592;51.088;13.732;2023-11-18T23:46:38;5.90;99.90
14993;DHT22;7592;51.088;13.732;2023-11-18T23:51:30;5.80;99.90
14993;DHT22;7592;51.088;13.732;2023-11-18T23:56:23;5.70;99.90
